Time;durP1;ratioP1;P1;durP2;ratioP2;P2;SDS_P1;SDS_P2;PMS_P1;PMS_P2;Temp;Humidity;BMP_temperature;BMP_pressure;BME280_temperature;BME280_humidity;BME280_pressure;Samples;Min_cycle;Max_cycle;Signal;HPM_P1;HPM_P2
2022/06/29 00:00:10;;;;;;;;;;;31.00;50.10;;;;;;682449;28;1333;-92
2022/06/29 00:00:31;;;;;;;;;;;31.00;49.30;;;;;;681551;28;1476;-90
2022/06/29 00:00:51;;;;;;;;;;;31.00;48.20;;;;;;681683;28;1250;-94
2022/06/29 00:01:13;;;;;;;;;;;31.00;49.60;;;;;;681203;28;1404;-91
2022/06/29 00:01:34;;;;;;;;;;;30.90;50.10;;;;;;682544;28;1395;-91
2022/06/29 00:01:54;;;;;;;;;;;31.00;48.30;;;;;;681822;28;1478;-91
2022/06/29 00:02:15;;;;;;;;;;;31.00;48.50;;;;;;683228;28;1290;-92
2022/06/29 00:02:36;;;;;;;;;;;30.90;48.60;;;;;;682957;28;1224;-90
2022/06/29 00:02:57;;;;;;;;;;;31.00;48.20;;;;;;681981;28;1402;-93
2022/06/29 00:03:17;;;;;;;;;;;30.90;48.30;;;;;;681183;28;1397;-87
2022/06/29 00:03:38;;;;;;;;;;;30.90;48.00;;;;;;681551;28;1202;-91
2022/06/29 00:04:01;;;;;;;;;;;30.90;48.70;;;;;;681394;28;1375;-94
2022/06/29 00:04:22;;;;;;;;;;;31.00;49.10;;;;;;682918;28;1420;-84
2022/06/29 00:04:43;;;;;;;;;;;32.50;49.80;;;;;;684048;28;1244;-91
2022/06/29 00:05:06;;;;;;;;;;;30.90;47.60;;;;;;684653;28;1325;-94
2022/06/29 00:05:27;;;;;;;;;;;31.00;49.10;;;;;;684152;28;1469;-94
2022/06/29 00:05:48;;;;;;;;;;;31.00;47.60;;;;;;684103;28;1190;-93
2022/06/29 00:06:08;;;;;;;;;;;30.90;48.10;;;;;;683328;28;1535;-90
2022/06/29 00:06:29;;;;;;;;;;;30.90;47.40;;;;;;682612;28;1441;-94
2022/06/29 00:06:49;;;;;;;;;;;31.00;48.50;;;;;;682326;28;1403;-91
2022/06/29 00:07:10;;;;;;;;;;;31.00;47.50;;;;;;682980;28;1460;-92
2022/06/29 00:07:31;;;;;;;;;;;31.00;48.60;;;;;;684515;28;1566;-93
2022/06/29 00:07:52;;;;;;;;;;;30.90;47.10;;;;;;684323;28;1259;-84
2022/06/29 00:08:13;;;;;;;;;;;30.90;46.80;;;;;;685173;28;1487;-86
2022/06/29 00:08:33;;;;;;;;;;;30.90;47.70;;;;;;685102;28;1470;-94
2022/06/29 00:08:54;;;;;;;;;;;30.90;46.50;;;;;;682478;28;2654;-84
2022/06/29 00:09:14;;;;;;;;;;;30.90;47.10;;;;;;683632;28;1486;-92
2022/06/29 00:09:35;;;;;;;;;;;30.90;47.30;;;;;;680381;29;1352;-88
2022/06/29 00:09:57;;;;;;;;;;;30.90;46.90;;;;;;680585;29;1267;-94
2022/06/29 00:10:18;;;;;;;;;;;30.90;46.70;;;;;;682074;29;1393;-94
2022/06/29 00:10:39;;;;;;;;;;;31.00;47.10;;;;;;681680;28;1948;-92
2022/06/29 00:10:59;;;;;;;;;;;30.90;47.40;;;;;;682823;28;1272;-91
2022/06/29 00:11:20;;;;;;;;;;;30.90;46.90;;;;;;681826;28;1464;-94
2022/06/29 00:11:40;;;;;;;;;;;31.00;46.70;;;;;;683060;28;1111;-90
2022/06/29 00:12:01;;;;;;;;;;;30.90;46.50;;;;;;683980;28;1385;-93
2022/06/29 00:12:22;;;;;;;;;;;30.90;46.40;;;;;;683946;28;1479;-94
2022/06/29 00:12:43;;;;;;;;;;;31.00;46.20;;;;;;683255;28;1161;-94
2022/06/29 00:13:04;;;;;;;;;;;31.00;46.50;;;;;;683109;28;1219;-91
2022/06/29 00:13:25;;;;;;;;;;;30.90;46.30;;;;;;682108;28;1345;-92
2022/06/29 00:13:45;;;;;;;;;;;30.90;46.80;;;;;;682222;28;1229;-91
2022/06/29 00:14:06;;;;;;;;;;;30.90;47.60;;;;;;682247;28;1392;-94
2022/06/29 00:14:26;;;;;;;;;;;30.90;46.50;;;;;;681716;28;1480;-92
2022/06/29 00:14:47;;;;;;;;;;;30.90;46.60;;;;;;680256;29;1209;-95
2022/06/29 00:15:08;;;;;;;;;;;30.90;46.80;;;;;;680619;29;1429;-94
2022/06/29 00:15:28;;;;;;;;;;;31.00;46.50;;;;;;680684;29;1504;-93
2022/06/29 00:16:00;;;;;;;;;;;30.90;46.10;;;;;;680112;29;1284;-90
2022/06/29 00:16:21;;;;;;;;;;;31.00;46.30;;;;;;678215;29;1249;-93
2022/06/29 00:16:41;;;;;;;;;;;30.90;46.30;;;;;;680057;29;1334;-94
2022/06/29 00:17:03;;;;;;;;;;;31.00;46.30;;;;;;680989;28;1449;-93
2022/06/29 00:17:24;;;;;;;;;;;31.00;46.20;;;;;;681824;29;1209;-92
2022/06/29 00:17:45;;;;;;;;;;;30.90;45.90;;;;;;680917;28;1390;-94
2022/06/29 00:18:06;;;;;;;;;;;31.00;45.80;;;;;;682790;28;1492;-95
2022/06/29 00:18:26;;;;;;;;;;;31.00;45.90;;;;;;684675;28;1320;-96
2022/06/29 00:18:49;;;;;;;;;;;31.00;46.20;;;;;;684756;28;1409;-90
2022/06/29 00:19:10;;;;;;;;;;;31.00;47.00;;;;;;684625;28;1413;-93
2022/06/29 00:19:30;;;;;;;;;;;31.00;46.90;;;;;;686053;28;1490;-92
2022/06/29 00:19:51;;;;;;;;;;;30.90;46.20;;;;;;685904;28;1486;-94
2022/06/29 00:20:12;;;;;;;;;;;31.00;47.30;;;;;;689756;28;1205;-93
2022/06/29 00:20:33;;;;;;;;;;;31.00;45.80;;;;;;691020;28;1343;-95
2022/06/29 00:20:53;;;;;;;;;;;31.00;46.00;;;;;;691593;28;1415;-96
2022/06/29 00:21:14;;;;;;;;;;;31.00;46.30;;;;;;686314;29;965;-96
2022/06/29 00:21:34;;;;;;;;;;;29.80;45.20;;;;;;684612;29;1364;-93
2022/06/29 00:21:55;;;;;;;;;;;30.90;46.30;;;;;;678945;29;1532;-92
2022/06/29 00:22:16;;;;;;;;;;;31.00;45.90;;;;;;679018;29;1308;-91
2022/06/29 00:22:37;;;;;;;;;;;31.00;45.90;;;;;;678939;29;1287;-94
2022/06/29 00:22:57;;;;;;;;;;;31.00;46.00;;;;;;679267;29;1421;-89
2022/06/29 00:23:18;;;;;;;;;;;31.00;46.30;;;;;;680844;28;1206;-94
2022/06/29 00:23:39;;;;;;;;;;;31.00;46.60;;;;;;682935;28;1186;-91
2022/06/29 00:23:59;;;;;;;;;;;31.00;45.70;;;;;;683240;28;1337;-92
2022/06/29 00:24:23;;;;;;;;;;;30.90;45.60;;;;;;687963;28;1069;-92
2022/06/29 00:24:43;;;;;;;;;;;31.00;45.70;;;;;;685726;28;1375;-87
2022/06/29 00:25:08;;;;;;;;;;;30.90;46.10;;;;;;684524;28;1550;-90
2022/06/29 00:25:30;;;;;;;;;;;31.00;45.90;;;;;;685290;28;1250;-89
2022/06/29 00:25:50;;;;;;;;;;;30.60;46.30;;;;;;684363;28;1464;-89
2022/06/29 00:26:11;;;;;;;;;;;30.90;45.90;;;;;;684122;28;1167;-88
2022/06/29 00:26:31;;;;;;;;;;;31.00;46.50;;;;;;684082;28;1317;-91
2022/06/29 00:26:52;;;;;;;;;;;31.00;46.20;;;;;;682175;29;1307;-89
2022/06/29 00:27:13;;;;;;;;;;;31.00;46.40;;;;;;681596;29;1275;-89
2022/06/29 00:27:33;;;;;;;;;;;31.00;46.00;;;;;;682445;29;1354;-94
2022/06/29 00:27:55;;;;;;;;;;;31.00;46.10;;;;;;681918;29;1468;-89
2022/06/29 00:28:15;;;;;;;;;;;31.00;46.00;;;;;;681752;29;1250;-91
2022/06/29 00:28:36;;;;;;;;;;;31.00;46.40;;;;;;681777;28;1327;-92
2022/06/29 00:28:56;;;;;;;;;;;31.00;46.20;;;;;;683903;28;1345;-91
2022/06/29 00:29:17;;;;;;;;;;;31.00;45.90;;;;;;682843;28;1305;-93
2022/06/29 00:29:39;;;;;;;;;;;31.00;46.10;;;;;;683764;28;1381;-90
2022/06/29 00:29:59;;;;;;;;;;;31.00;45.80;;;;;;684014;28;1353;-91
2022/06/29 00:30:21;;;;;;;;;;;31.00;45.90;;;;;;683546;28;1316;-90
2022/06/29 00:30:42;;;;;;;;;;;31.00;45.70;;;;;;683696;28;1940;-92
2022/06/29 00:31:04;;;;;;;;;;;30.90;46.30;;;;;;684709;28;1437;-94
2022/06/29 00:31:26;;;;;;;;;;;31.00;45.70;;;;;;681176;29;1465;-88
2022/06/29 00:31:46;;;;;;;;;;;30.90;45.60;;;;;;678254;29;1312;-90
2022/06/29 00:32:07;;;;;;;;;;;30.90;45.70;;;;;;678189;29;1241;-92
2022/06/29 00:32:28;;;;;;;;;;;30.90;45.60;;;;;;679218;29;1200;-86
2022/06/29 00:32:54;;;;;;;;;;;30.90;45.70;;;;;;680973;29;1541;-88
2022/06/29 00:33:15;;;;;;;;;;;30.90;45.60;;;;;;682668;29;1174;-94
2022/06/29 00:35:01;;;;;;;;;;;30.90;45.80;;;;;;689660;28;1851;-90
2022/06/29 00:35:21;;;;;;;;;;;34.20;49.30;;;;;;687761;28;1488;-92
2022/06/29 00:35:42;;;;;;;;;;;30.90;45.80;;;;;;684877;28;1295;-92
2022/06/29 00:36:03;;;;;;;;;;;30.90;45.80;;;;;;680963;29;1283;-88
2022/06/29 00:36:23;;;;;;;;;;;30.90;45.70;;;;;;681620;29;1445;-90
2022/06/29 00:36:44;;;;;;;;;;;30.90;45.60;;;;;;681585;29;1467;-86
2022/06/29 00:37:04;;;;;;;;;;;30.90;45.60;;;;;;682582;28;1609;-95
2022/06/29 00:37:26;;;;;;;;;;;30.90;45.90;;;;;;684671;28;1499;-83
2022/06/29 00:37:46;;;;;;;;;;;30.90;45.90;;;;;;684386;28;1486;-90
2022/06/29 00:38:07;;;;;;;;;;;30.90;45.70;;;;;;686998;28;1462;-95
2022/06/29 00:38:27;;;;;;;;;;;30.80;45.80;;;;;;686707;28;1503;-84
2022/06/29 00:38:48;;;;;;;;;;;30.90;47.30;;;;;;687020;28;1462;-92
2022/06/29 00:39:09;;;;;;;;;;;30.90;46.50;;;;;;687759;28;1385;-90
2022/06/29 00:39:30;;;;;;;;;;;30.90;47.60;;;;;;688750;28;1455;-92
2022/06/29 00:39:51;;;;;;;;;;;30.80;46.40;;;;;;689163;28;1264;-90
2022/06/29 00:40:13;;;;;;;;;;;30.80;47.20;;;;;;690308;28;1262;-95
2022/06/29 00:40:37;;;;;;;;;;;30.80;46.10;;;;;;687084;28;1486;-89
2022/06/29 00:40:57;;;;;;;;;;;30.80;45.90;;;;;;687230;28;1336;-87
2022/06/29 00:41:24;;;;;;;;;;;30.90;46.00;;;;;;687462;28;1353;-92
2022/06/29 00:41:45;;;;;;;;;;;31.50;46.20;;;;;;687395;28;1363;-85
2022/06/29 00:42:06;;;;;;;;;;;30.80;46.40;;;;;;684473;28;1459;-83
2022/06/29 00:42:27;;;;;;;;;;;30.80;46.20;;;;;;684602;28;1268;-83
2022/06/29 00:42:48;;;;;;;;;;;30.80;46.10;;;;;;681565;29;1600;-92
2022/06/29 00:43:17;;;;;;;;;;;30.80;45.90;;;;;;680337;29;1409;-95
2022/06/29 00:43:40;;;;;;;;;;;30.80;45.80;;;;;;680466;29;1481;-95
2022/06/29 00:44:01;;;;;;;;;;;29.60;45.30;;;;;;680777;29;1202;-92
2022/06/29 00:44:22;;;;;;;;;;;30.80;46.50;;;;;;683730;29;1185;-91
2022/06/29 00:44:47;;;;;;;;;;;30.80;46.20;;;;;;685687;28;1429;-91
2022/06/29 00:45:09;;;;;;;;;;;33.80;48.20;;;;;;688915;28;1532;-81
2022/06/29 00:45:30;;;;;;;;;;;30.80;45.90;;;;;;692141;28;1348;-92
2022/06/29 00:45:51;;;;;;;;;;;30.80;45.90;;;;;;690672;28;1160;-95
2022/06/29 00:46:11;;;;;;;;;;;30.80;46.00;;;;;;687490;28;1428;-94
2022/06/29 00:46:32;;;;;;;;;;;30.80;45.80;;;;;;689453;28;1224;-85
2022/06/29 00:46:54;;;;;;;;;;;30.80;46.00;;;;;;688838;28;1448;-89
2022/06/29 00:47:37;;;;;;;;;;;30.80;46.20;;;;;;691010;28;1348;-89
2022/06/29 00:48:06;;;;;;;;;;;30.80;46.20;;;;;;692096;28;1313;-84
2022/06/29 00:48:28;;;;;;;;;;;30.80;45.90;;;;;;692985;28;1479;-84
2022/06/29 00:48:48;;;;;;;;;;;30.70;45.70;;;;;;691502;28;1557;-84
2022/06/29 00:49:09;;;;;;;;;;;30.80;46.00;;;;;;692854;28;1020;-88
2022/06/29 00:49:52;;;;;;;;;;;30.80;45.90;;;;;;691959;28;1322;-81
2022/06/29 00:50:13;;;;;;;;;;;30.70;46.30;;;;;;688123;28;1369;-86
2022/06/29 00:50:34;;;;;;;;;;;30.70;45.90;;;;;;683283;28;1930;-91
2022/06/29 00:50:55;;;;;;;;;;;30.70;48.40;;;;;;682492;28;1341;-90
2022/06/29 00:51:17;;;;;;;;;;;30.70;46.40;;;;;;680739;28;1358;-93
2022/06/29 00:51:38;;;;;;;;;;;30.70;45.90;;;;;;682719;28;1354;-94
2022/06/29 00:52:09;;;;;;;;;;;30.70;46.00;;;;;;680870;28;1579;-92
2022/06/29 00:52:31;;;;;;;;;;;30.70;45.90;;;;;;682553;28;1301;-92
2022/06/29 00:52:51;;;;;;;;;;;30.70;46.20;;;;;;682730;28;1248;-90
2022/06/29 00:53:16;;;;;;;;;;;30.70;46.20;;;;;;683994;28;1373;-87
2022/06/29 00:53:39;;;;;;;;;;;30.70;46.60;;;;;;682853;28;1398;-93
2022/06/29 00:54:02;;;;;;;;;;;30.60;46.10;;;;;;685286;28;1456;-87
2022/06/29 00:54:24;;;;;;;;;;;32.40;47.70;;;;;;687182;28;1299;-89
2022/06/29 00:54:46;;;;;;;;;;;29.10;45.60;;;;;;688702;28;1502;-91
2022/06/29 00:55:10;;;;;;;;;;;30.60;46.20;;;;;;687719;28;1378;-94
2022/06/29 00:55:31;;;;;;;;;;;30.60;46.30;;;;;;685414;28;1733;-91
2022/06/29 00:56:04;;;;;;;;;;;30.60;46.00;;;;;;685103;28;1473;-91
2022/06/29 00:56:24;;;;;;;;;;;30.60;46.00;;;;;;691795;28;1389;-79
2022/06/29 00:56:45;;;;;;;;;;;30.60;46.00;;;;;;689462;28;1518;-78
2022/06/29 00:57:07;;;;;;;;;;;30.60;46.10;;;;;;687666;28;1546;-90
2022/06/29 00:57:29;;;;;;;;;;;30.60;46.30;;;;;;683325;28;1375;-82
2022/06/29 00:57:51;;;;;;;;;;;30.60;46.00;;;;;;684920;28;1495;-93
2022/06/29 00:58:14;;;;;;;;;;;30.60;46.30;;;;;;683092;28;1309;-95
2022/06/29 00:58:35;;;;;;;;;;;30.60;46.30;;;;;;682213;28;1617;-94
2022/06/29 00:58:58;;;;;;;;;;;30.60;46.60;;;;;;684505;28;1484;-93
2022/06/29 00:59:25;;;;;;;;;;;30.60;46.40;;;;;;685503;28;1437;-87
2022/06/29 00:59:48;;;;;;;;;;;31.90;47.00;;;;;;684539;28;1250;-91
2022/06/29 01:00:09;;;;;;;;;;;30.60;46.10;;;;;;685941;28;1364;-94
2022/06/29 01:00:50;;;;;;;;;;;30.60;46.20;;;;;;687102;28;1337;-93
2022/06/29 01:01:15;;;;;;;;;;;30.60;46.10;;;;;;691727;28;1328;-84
2022/06/29 01:01:36;;;;;;;;;;;30.60;46.00;;;;;;691579;28;1315;-95
2022/06/29 01:01:57;;;;;;;;;;;30.60;45.90;;;;;;691097;28;1340;-94
2022/06/29 01:02:20;;;;;;;;;;;30.60;46.10;;;;;;691475;28;1387;-89
2022/06/29 01:02:40;;;;;;;;;;;30.60;46.10;;;;;;692278;28;1571;-93
2022/06/29 01:03:01;;;;;;;;;;;30.60;46.00;;;;;;688625;28;1241;-93
2022/06/29 01:03:22;;;;;;;;;;;30.60;46.50;;;;;;686225;28;1219;-92
2022/06/29 01:03:44;;;;;;;;;;;30.60;47.60;;;;;;686331;28;1493;-89
2022/06/29 01:04:04;;;;;;;;;;;30.50;46.70;;;;;;686084;28;1301;-87
2022/06/29 01:04:25;;;;;;;;;;;30.60;46.90;;;;;;686806;28;1434;-92
2022/06/29 01:04:46;;;;;;;;;;;30.60;46.20;;;;;;686336;28;1371;-96
2022/06/29 01:05:07;;;;;;;;;;;30.60;46.10;;;;;;691067;28;1340;-86
2022/06/29 01:05:28;;;;;;;;;;;30.60;46.30;;;;;;691470;28;1119;-84
2022/06/29 01:05:49;;;;;;;;;;;30.60;47.10;;;;;;690568;28;1443;-94
2022/06/29 01:06:11;;;;;;;;;;;30.60;46.20;;;;;;690544;28;1494;-91
2022/06/29 01:06:32;;;;;;;;;;;30.60;46.20;;;;;;687623;28;1326;-88
2022/06/29 01:06:52;;;;;;;;;;;30.60;46.10;;;;;;684747;28;1377;-89
2022/06/29 01:07:13;;;;;;;;;;;30.60;46.70;;;;;;682323;28;1532;-89
2022/06/29 01:07:34;;;;;;;;;;;30.60;45.90;;;;;;682902;28;1209;-84
2022/06/29 01:07:55;;;;;;;;;;;30.60;45.90;;;;;;682380;28;1269;-93
2022/06/29 01:08:15;;;;;;;;;;;30.60;47.30;;;;;;682671;28;1630;-96
2022/06/29 01:08:36;;;;;;;;;;;30.50;45.90;;;;;;683078;28;1438;-84
2022/06/29 01:08:56;;;;;;;;;;;30.60;45.90;;;;;;685922;28;1198;-91
2022/06/29 01:09:18;;;;;;;;;;;30.60;46.00;;;;;;687210;28;1513;-86
2022/06/29 01:09:38;;;;;;;;;;;30.60;46.00;;;;;;687762;28;1322;-88
2022/06/29 01:10:00;;;;;;;;;;;30.50;45.90;;;;;;687951;28;1466;-96
2022/06/29 01:10:20;;;;;;;;;;;30.50;45.80;;;;;;687594;28;1280;-95
2022/06/29 01:10:41;;;;;;;;;;;31.90;46.80;;;;;;688461;28;1902;-83
2022/06/29 01:11:02;;;;;;;;;;;30.50;45.80;;;;;;687241;28;1419;-86
2022/06/29 01:11:23;;;;;;;;;;;30.50;46.30;;;;;;687936;28;1259;-95
2022/06/29 01:11:44;;;;;;;;;;;30.50;45.80;;;;;;687219;28;1445;-90
2022/06/29 01:12:07;;;;;;;;;;;30.60;45.80;;;;;;687868;28;1387;-95
2022/06/29 01:12:28;;;;;;;;;;;30.50;46.20;;;;;;687023;28;1310;-96
2022/06/29 01:12:49;;;;;;;;;;;30.50;46.00;;;;;;684871;28;1376;-91
2022/06/29 01:13:10;;;;;;;;;;;30.50;45.90;;;;;;684867;28;1697;-91
2022/06/29 01:13:31;;;;;;;;;;;30.50;45.70;;;;;;684376;28;1373;-91
2022/06/29 01:13:52;;;;;;;;;;;30.50;46.00;;;;;;685665;28;1443;-90
2022/06/29 01:14:16;;;;;;;;;;;30.50;45.80;;;;;;684656;28;1673;-94
2022/06/29 01:14:36;;;;;;;;;;;30.50;45.70;;;;;;685442;28;1325;-89
2022/06/29 01:14:57;;;;;;;;;;;30.50;46.00;;;;;;687079;28;1304;-95
2022/06/29 01:15:18;;;;;;;;;;;30.50;45.80;;;;;;688396;28;1335;-88
2022/06/29 01:15:39;;;;;;;;;;;30.50;46.10;;;;;;684730;28;1479;-95
2022/06/29 01:15:59;;;;;;;;;;;30.50;45.90;;;;;;686282;28;1384;-92
2022/06/29 01:16:20;;;;;;;;;;;30.50;45.90;;;;;;689350;28;1271;-91
2022/06/29 01:16:43;;;;;;;;;;;30.50;46.20;;;;;;688307;28;1478;-92
2022/06/29 01:17:04;;;;;;;;;;;30.50;45.70;;;;;;688655;28;1480;-94
2022/06/29 01:17:24;;;;;;;;;;;30.50;46.00;;;;;;689855;28;1250;-91
2022/06/29 01:17:45;;;;;;;;;;;30.50;46.10;;;;;;690623;28;1343;-96
2022/06/29 01:18:05;;;;;;;;;;;30.50;45.80;;;;;;692214;28;1258;-96
2022/06/29 01:18:26;;;;;;;;;;;30.50;45.60;;;;;;689242;28;1353;-89
2022/06/29 01:18:47;;;;;;;;;;;30.50;45.60;;;;;;688692;28;1404;-94
2022/06/29 01:19:08;;;;;;;;;;;30.50;45.60;;;;;;688664;28;1199;-95
2022/06/29 01:19:28;;;;;;;;;;;30.60;45.80;;;;;;688467;28;1527;-92
2022/06/29 01:19:49;;;;;;;;;;;30.50;45.80;;;;;;688394;28;1419;-93
2022/06/29 01:20:13;;;;;;;;;;;30.50;45.80;;;;;;689115;28;1469;-92
2022/06/29 01:20:34;;;;;;;;;;;30.50;45.60;;;;;;687864;28;1459;-95
2022/06/29 01:20:54;;;;;;;;;;;30.50;46.10;;;;;;688087;28;1389;-93
2022/06/29 01:21:18;;;;;;;;;;;30.40;45.50;;;;;;684367;28;1425;-90
2022/06/29 01:21:39;;;;;;;;;;;30.40;45.70;;;;;;686606;28;1375;-86
2022/06/29 01:22:07;;;;;;;;;;;30.40;45.80;;;;;;684936;28;1264;-92
2022/06/29 01:22:28;;;;;;;;;;;30.50;45.70;;;;;;684334;28;1423;-95
2022/06/29 01:22:51;;;;;;;;;;;30.50;45.80;;;;;;683643;28;1358;-92
2022/06/29 01:23:12;;;;;;;;;;;30.40;46.20;;;;;;684692;28;1409;-88
2022/06/29 01:23:32;;;;;;;;;;;30.40;45.60;;;;;;683430;28;1307;-90
2022/06/29 01:23:53;;;;;;;;;;;30.50;45.90;;;;;;684557;28;1442;-90
2022/06/29 01:24:13;;;;;;;;;;;30.50;46.20;;;;;;685445;28;1487;-88
2022/06/29 01:24:34;;;;;;;;;;;30.40;45.80;;;;;;685231;28;1278;-89
2022/06/29 01:24:55;;;;;;;;;;;30.40;46.20;;;;;;685648;28;1426;-89
2022/06/29 01:25:17;;;;;;;;;;;30.40;45.60;;;;;;685146;28;1337;-94
2022/06/29 01:25:39;;;;;;;;;;;30.40;45.50;;;;;;689131;28;1564;-96
2022/06/29 01:26:09;;;;;;;;;;;30.50;45.80;;;;;;688120;28;1443;-94
2022/06/29 01:26:29;;;;;;;;;;;30.40;45.70;;;;;;689090;28;1414;-91
2022/06/29 01:26:50;;;;;;;;;;;30.40;45.70;;;;;;688764;28;1219;-93
2022/06/29 01:27:12;;;;;;;;;;;30.50;45.80;;;;;;687967;28;1209;-95
2022/06/29 01:27:33;;;;;;;;;;;30.40;45.80;;;;;;686689;28;1420;-93
2022/06/29 01:27:53;;;;;;;;;;;30.40;45.80;;;;;;686133;28;1345;-96
2022/06/29 01:28:14;;;;;;;;;;;30.40;45.60;;;;;;687436;28;1311;-90
2022/06/29 01:28:35;;;;;;;;;;;30.40;46.00;;;;;;689434;28;1498;-90
2022/06/29 01:28:57;;;;;;;;;;;30.40;45.70;;;;;;688130;28;1478;-95
2022/06/29 01:29:17;;;;;;;;;;;30.40;46.00;;;;;;689148;28;1319;-94
2022/06/29 01:29:39;;;;;;;;;;;29.30;45.00;;;;;;689497;28;1442;-94
2022/06/29 01:30:00;;;;;;;;;;;30.50;46.00;;;;;;689311;28;1392;-96
2022/06/29 01:30:20;;;;;;;;;;;30.40;45.80;;;;;;689635;28;1204;-91
2022/06/29 01:30:41;;;;;;;;;;;30.40;45.60;;;;;;685508;28;1907;-95
2022/06/29 01:31:01;;;;;;;;;;;30.40;45.80;;;;;;683277;28;1345;-94
2022/06/29 01:31:22;;;;;;;;;;;30.40;46.20;;;;;;683158;28;1226;-95
2022/06/29 01:31:43;;;;;;;;;;;30.50;46.00;;;;;;683574;28;1606;-95
2022/06/29 01:32:04;;;;;;;;;;;30.40;45.70;;;;;;680860;29;1281;-91
2022/06/29 01:32:24;;;;;;;;;;;30.40;45.70;;;;;;680717;28;1472;-89
2022/06/29 01:32:45;;;;;;;;;;;30.50;45.60;;;;;;682921;28;1483;-91
2022/06/29 01:33:05;;;;;;;;;;;30.50;45.70;;;;;;687309;28;1200;-96
2022/06/29 01:33:26;;;;;;;;;;;30.50;45.80;;;;;;688104;28;1212;-92
2022/06/29 01:33:48;;;;;;;;;;;30.50;45.60;;;;;;687468;28;1403;-96
2022/06/29 01:34:10;;;;;;;;;;;30.40;45.60;;;;;;688016;28;1263;-91
2022/06/29 01:34:31;;;;;;;;;;;30.50;45.80;;;;;;689781;28;1273;-93
2022/06/29 01:34:53;;;;;;;;;;;30.50;45.80;;;;;;686883;28;1459;-92
2022/06/29 01:35:29;;;;;;;;;;;30.40;45.60;;;;;;686517;28;1316;-89
2022/06/29 01:35:50;;;;;;;;;;;29.90;45.30;;;;;;689787;28;1475;-96
2022/06/29 01:36:12;;;;;;;;;;;30.50;46.10;;;;;;687764;28;1096;-96
2022/06/29 01:36:53;;;;;;;;;;;30.40;45.70;;;;;;689520;28;1605;-91
2022/06/29 01:37:59;;;;;;;;;;;30.50;45.60;;;;;;690245;28;1492;-87
2022/06/29 01:38:24;;;;;;;;;;;30.60;46.60;;;;;;688269;28;1418;-96
2022/06/29 01:38:45;;;;;;;;;;;30.50;45.60;;;;;;688922;28;1478;-86
2022/06/29 01:39:05;;;;;;;;;;;30.50;45.40;;;;;;689106;28;1346;-95
2022/06/29 01:39:30;;;;;;;;;;;30.50;45.50;;;;;;688938;28;1470;-90
2022/06/29 01:39:51;;;;;;;;;;;30.50;46.60;;;;;;688250;28;1254;-94
2022/06/29 01:40:12;;;;;;;;;;;30.50;45.50;;;;;;687117;28;1439;-92
2022/06/29 01:40:32;;;;;;;;;;;30.50;45.40;;;;;;683720;28;1432;-93
2022/06/29 01:40:53;;;;;;;;;;;30.50;45.40;;;;;;684167;28;1224;-94
2022/06/29 01:41:26;;;;;;;;;;;30.50;45.30;;;;;;687983;28;1329;-89
2022/06/29 01:42:08;;;;;;;;;;;30.50;45.30;;;;;;686135;23;1498;-85
2022/06/29 01:42:29;;;;;;;;;;;30.50;46.30;;;;;;687257;28;1735;-82
2022/06/29 01:42:49;;;;;;;;;;;30.60;45.70;;;;;;689620;28;1440;-84
2022/06/29 01:43:10;;;;;;;;;;;29.40;45.20;;;;;;690552;28;1492;-90
2022/06/29 01:43:31;;;;;;;;;;;29.90;45.80;;;;;;690464;28;1272;-83
2022/06/29 01:43:52;;;;;;;;;;;30.60;46.10;;;;;;694820;28;823;-87
2022/06/29 01:44:12;;;;;;;;;;;30.50;45.20;;;;;;692422;28;1169;-81
2022/06/29 01:44:34;;;;;;;;;;;30.50;45.10;;;;;;689252;28;1080;-81
2022/06/29 01:45:54;;;;;;;;;;;30.50;45.00;;;;;;689153;28;1374;-88
2022/06/29 01:46:14;;;;;;;;;;;30.60;45.10;;;;;;690116;28;1365;-93
2022/06/29 01:46:35;;;;;;;;;;;30.60;45.10;;;;;;689607;28;1206;-90
2022/06/29 01:46:56;;;;;;;;;;;30.60;45.10;;;;;;688823;28;1175;-96
2022/06/29 01:47:16;;;;;;;;;;;30.60;45.00;;;;;;689904;28;1641;-92
2022/06/29 01:48:04;;;;;;;;;;;30.60;45.00;;;;;;688998;28;1402;-94
2022/06/29 01:48:25;;;;;;;;;;;30.60;45.10;;;;;;687687;28;1681;-84
2022/06/29 01:48:45;;;;;;;;;;;30.60;45.00;;;;;;686288;29;1239;-78
2022/06/29 01:50:24;;;;;;;;;;;32.50;46.30;;;;;;687234;29;653;-81
2022/06/29 01:50:44;;;;;;;;;;;30.60;44.90;;;;;;685627;28;1951;-90
2022/06/29 01:51:05;;;;;;;;;;;30.60;44.80;;;;;;685101;28;1567;-87
2022/06/29 01:51:27;;;;;;;;;;;30.60;45.40;;;;;;685486;28;1185;-94
2022/06/29 01:51:52;;;;;;;;;;;30.60;45.80;;;;;;685689;28;1436;-94
2022/06/29 01:52:13;;;;;;;;;;;30.60;45.00;;;;;;684854;28;1324;-92
2022/06/29 01:52:33;;;;;;;;;;;30.60;44.90;;;;;;686112;28;1077;-96
2022/06/29 01:52:54;;;;;;;;;;;30.60;44.90;;;;;;684815;28;1308;-96
2022/06/29 01:53:15;;;;;;;;;;;28.70;43.60;;;;;;682079;29;1340;-92
2022/06/29 01:53:39;;;;;;;;;;;27.80;43.00;;;;;;681886;29;1387;-94
2022/06/29 01:54:01;;;;;;;;;;;30.60;44.90;;;;;;681549;29;1227;-94
2022/06/29 01:54:23;;;;;;;;;;;30.70;44.90;;;;;;681587;29;1269;-86
2022/06/29 01:54:44;;;;;;;;;;;30.60;44.90;;;;;;681902;28;1436;-95
2022/06/29 01:55:05;;;;;;;;;;;30.70;45.00;;;;;;683540;28;1556;-90
2022/06/29 01:55:25;;;;;;;;;;;30.60;44.90;;;;;;682474;28;1299;-96
2022/06/29 01:55:47;;;;;;;;;;;30.60;44.90;;;;;;682425;28;1320;-94
2022/06/29 01:56:08;;;;;;;;;;;30.60;44.90;;;;;;682774;28;1209;-95
2022/06/29 01:56:29;;;;;;;;;;;30.60;45.10;;;;;;681604;28;1430;-92
2022/06/29 01:56:51;;;;;;;;;;;28.10;43.50;;;;;;680902;28;1217;-91
2022/06/29 01:57:12;;;;;;;;;;;30.60;44.80;;;;;;681478;28;1213;-92
2022/06/29 01:57:33;;;;;;;;;;;30.60;44.90;;;;;;680332;28;1473;-89
2022/06/29 01:57:54;;;;;;;;;;;30.60;45.20;;;;;;680124;28;1285;-87
2022/06/29 01:58:15;;;;;;;;;;;30.60;44.90;;;;;;680620;28;1288;-92
2022/06/29 01:58:36;;;;;;;;;;;30.60;45.10;;;;;;680187;28;1464;-93
2022/06/29 01:58:56;;;;;;;;;;;30.60;45.00;;;;;;680798;28;1395;-91
2022/06/29 01:59:18;;;;;;;;;;;30.60;45.50;;;;;;681058;28;1248;-92
2022/06/29 01:59:39;;;;;;;;;;;30.60;44.90;;;;;;680638;28;1489;-93
2022/06/29 02:00:00;;;;;;;;;;;30.60;44.80;;;;;;681453;28;1442;-93
2022/06/29 02:00:20;;;;;;;;;;;30.60;45.10;;;;;;678346;29;1410;-92
2022/06/29 02:00:41;;;;;;;;;;;30.60;45.00;;;;;;678056;29;1250;-92
2022/06/29 02:01:02;;;;;;;;;;;30.60;44.90;;;;;;678307;29;1300;-89
2022/06/29 02:01:22;;;;;;;;;;;30.60;45.20;;;;;;677202;29;1392;-92
2022/06/29 02:01:45;;;;;;;;;;;30.60;45.70;;;;;;677620;29;1210;-90
2022/06/29 02:02:07;;;;;;;;;;;30.60;45.10;;;;;;677827;29;1310;-92
2022/06/29 02:02:28;;;;;;;;;;;30.60;45.60;;;;;;679648;29;1298;-92
2022/06/29 02:02:48;;;;;;;;;;;30.60;45.20;;;;;;682200;28;1382;-94
2022/06/29 02:03:09;;;;;;;;;;;30.60;45.10;;;;;;683581;28;1354;-90
2022/06/29 02:03:30;;;;;;;;;;;30.60;45.10;;;;;;682851;28;1344;-89
2022/06/29 02:03:51;;;;;;;;;;;30.70;45.40;;;;;;683061;28;1302;-90
2022/06/29 02:04:11;;;;;;;;;;;30.60;44.90;;;;;;683844;28;1196;-91
2022/06/29 02:04:32;;;;;;;;;;;30.60;45.00;;;;;;683336;28;1557;-89
2022/06/29 02:04:52;;;;;;;;;;;30.70;45.20;;;;;;680508;28;1189;-93
2022/06/29 02:05:14;;;;;;;;;;;30.70;45.00;;;;;;681053;28;1208;-92
2022/06/29 02:05:35;;;;;;;;;;;30.70;45.00;;;;;;680736;28;1494;-88
2022/06/29 02:05:55;;;;;;;;;;;30.60;44.90;;;;;;681227;28;1351;-93
2022/06/29 02:06:16;;;;;;;;;;;30.70;45.10;;;;;;679585;29;1345;-91
2022/06/29 02:06:36;;;;;;;;;;;30.70;45.00;;;;;;680566;28;1337;-91
2022/06/29 02:06:57;;;;;;;;;;;30.70;45.90;;;;;;680201;28;1552;-92
2022/06/29 02:07:17;;;;;;;;;;;30.70;45.90;;;;;;681291;28;1429;-91
2022/06/29 02:07:38;;;;;;;;;;;30.70;45.10;;;;;;681092;28;1487;-89
2022/06/29 02:07:59;;;;;;;;;;;30.70;45.40;;;;;;680606;28;1284;-92
2022/06/29 02:08:19;;;;;;;;;;;30.60;45.00;;;;;;681886;28;1219;-90
2022/06/29 02:08:40;;;;;;;;;;;30.60;45.60;;;;;;680624;28;1518;-94
2022/06/29 02:09:01;;;;;;;;;;;30.60;45.50;;;;;;680993;28;1243;-92
2022/06/29 02:09:21;;;;;;;;;;;30.70;45.30;;;;;;681340;28;1334;-90
2022/06/29 02:09:42;;;;;;;;;;;30.70;46.10;;;;;;681648;28;1328;-93
2022/06/29 02:10:03;;;;;;;;;;;30.70;46.10;;;;;;680257;28;1280;-93
2022/06/29 02:10:23;;;;;;;;;;;30.60;45.10;;;;;;681181;28;1252;-93
2022/06/29 02:10:44;;;;;;;;;;;30.60;45.00;;;;;;681041;28;1993;-91
2022/06/29 02:11:04;;;;;;;;;;;30.70;45.00;;;;;;681462;28;1205;-80
2022/06/29 02:11:25;;;;;;;;;;;30.60;45.30;;;;;;681528;28;1204;-88
2022/06/29 02:11:45;;;;;;;;;;;30.60;45.00;;;;;;681081;28;1329;-93
2022/06/29 02:12:06;;;;;;;;;;;30.60;45.30;;;;;;680601;28;1252;-93
2022/06/29 02:12:27;;;;;;;;;;;30.70;46.50;;;;;;681194;28;1328;-92
2022/06/29 02:12:47;;;;;;;;;;;30.60;45.60;;;;;;681886;28;1428;-91
2022/06/29 02:13:08;;;;;;;;;;;30.60;45.40;;;;;;680740;28;1150;-93
2022/06/29 02:13:29;;;;;;;;;;;30.70;45.30;;;;;;680388;29;1255;-90
2022/06/29 02:13:49;;;;;;;;;;;30.70;45.90;;;;;;680714;29;1496;-91
2022/06/29 02:14:10;;;;;;;;;;;30.60;45.10;;;;;;680652;29;1266;-93
2022/06/29 02:14:31;;;;;;;;;;;30.70;45.30;;;;;;680645;29;1225;-90
2022/06/29 02:14:52;;;;;;;;;;;30.60;45.30;;;;;;680523;29;1437;-92